createdAt,value
2022-11-24T00:01:40.026Z,100892.81
2022-11-24T00:05:03.832Z,100891.97
2022-11-24T00:08:25.949Z,100890.25
2022-11-24T00:11:48.418Z,100888.59
2022-11-24T00:15:10.951Z,100888.53
2022-11-24T00:18:32.953Z,100887.72
2022-11-24T00:21:56.707Z,100888.53
2022-11-24T00:25:18.861Z,100888.50
2022-11-24T00:28:42.054Z,100894.50
2022-11-24T00:32:06.272Z,100891.09
2022-11-24T00:35:28.288Z,100898.78
2022-11-24T00:38:55.329Z,100896.22
2022-11-24T00:42:17.502Z,100896.19
2022-11-24T00:45:39.819Z,100897.03
2022-11-24T00:49:02.205Z,100898.66
2022-11-24T00:52:24.119Z,100891.88
2022-11-24T00:55:50.788Z,100894.47
2022-11-24T00:59:12.939Z,100900.41
2022-11-24T01:02:35.176Z,100907.28
2022-11-24T01:05:57.320Z,100903.88
2022-11-24T01:09:19.547Z,100907.31
2022-11-24T01:12:43.236Z,100902.19
2022-11-24T01:16:05.371Z,100905.56
2022-11-24T01:19:27.531Z,100906.44
2022-11-24T01:22:50.378Z,100900.44
2022-11-24T01:26:14.878Z,100897.81
2022-11-24T01:29:38.561Z,100901.22
2022-11-24T01:33:00.670Z,100896.97
2022-11-24T01:36:23.707Z,100898.66
2022-11-24T01:39:46.038Z,100887.53
2022-11-24T01:43:17.994Z,100896.97
2022-11-24T01:46:44.978Z,100894.41
2022-11-24T01:50:07.759Z,100895.22
2022-11-24T01:53:29.893Z,100880.59
2022-11-24T01:56:56.678Z,100890.03
2022-11-24T02:00:22.548Z,100898.56
2022-11-24T02:03:49.315Z,100895.97
2022-11-24T02:07:14.331Z,100898.56
2022-11-24T02:10:39.808Z,100907.09
2022-11-24T02:14:02.151Z,100906.22
2022-11-24T02:17:24.377Z,100910.53
2022-11-24T02:20:48.048Z,100913.09
2022-11-24T02:24:16.712Z,100913.91
2022-11-24T02:27:40.111Z,100909.66
2022-11-24T02:31:03.741Z,100906.19
2022-11-24T02:34:25.575Z,100906.22
2022-11-24T02:37:47.690Z,100904.53
2022-11-24T02:41:14.845Z,100907.00
2022-11-24T02:44:42.400Z,100908.75
2022-11-24T02:48:04.955Z,100913.88
2022-11-24T02:51:29.887Z,100906.97
2022-11-24T02:54:51.920Z,100909.56
2022-11-24T02:58:15.129Z,100903.59
2022-11-24T03:01:38.642Z,100909.56
2022-11-24T03:05:00.573Z,100910.41
2022-11-24T03:08:22.927Z,100907.91
2022-11-24T03:11:44.894Z,100911.28
2022-11-24T03:15:07.913Z,100909.56
2022-11-24T03:18:31.132Z,100911.28
2022-11-24T03:21:53.112Z,100913.00
2022-11-24T03:25:15.383Z,100911.28
2022-11-24T03:28:37.500Z,100908.63
2022-11-24T03:32:00.072Z,100900.06
2022-11-24T03:35:24.495Z,100913.78
2022-11-24T03:38:47.159Z,100913.69
2022-11-24T03:42:09.217Z,100918.88
2022-11-24T03:45:46.127Z,100913.69
2022-11-24T03:49:08.531Z,100915.44
2022-11-24T03:52:32.022Z,100911.19
2022-11-24T03:55:54.025Z,100912.88
2022-11-24T03:59:16.256Z,100918.00
2022-11-24T04:02:38.068Z,100912.88
2022-11-24T04:06:00.162Z,100912.81
2022-11-24T04:09:23.953Z,100917.06
2022-11-24T04:12:46.109Z,100916.19
2022-11-24T04:16:09.165Z,100911.09
2022-11-24T04:19:31.302Z,100915.38
2022-11-24T04:22:53.599Z,100927.34
2022-11-24T04:26:17.157Z,100937.63
2022-11-24T04:29:39.091Z,100925.69
2022-11-24T04:33:01.400Z,100936.78
2022-11-24T04:36:23.575Z,100938.44
2022-11-24T04:39:46.671Z,100944.41
2022-11-24T04:43:10.788Z,100939.25
2022-11-24T04:46:32.813Z,100947.81
2022-11-24T04:49:55.382Z,100954.53
2022-11-24T04:53:17.642Z,100952.03
2022-11-24T04:56:39.941Z,100965.75
2022-11-24T05:00:04.312Z,100956.38
2022-11-24T05:03:26.586Z,100964.91
2022-11-24T05:06:48.835Z,100956.28
2022-11-24T05:10:28.454Z,100955.47
2022-11-24T05:13:50.707Z,100957.94
2022-11-24T05:17:14.423Z,100969.94
2022-11-24T05:20:36.772Z,100969.91
2022-11-24T05:23:58.716Z,100977.59
2022-11-24T05:27:20.879Z,100969.88
2022-11-24T05:30:43.182Z,100976.75
2022-11-24T05:34:06.497Z,100981.84
2022-11-24T05:37:30.421Z,100982.69
2022-11-24T05:40:52.622Z,100990.34
2022-11-24T05:44:14.589Z,100990.41
2022-11-24T05:47:37.021Z,100991.22
2022-11-24T05:51:03.130Z,100992.09
2022-11-24T05:54:27.408Z,100993.81
2022-11-24T05:57:49.557Z,100996.34
2022-11-24T06:01:11.024Z,100997.22
2022-11-24T06:04:33.459Z,100998.94
2022-11-24T06:07:57.394Z,100998.09
2022-11-24T06:11:19.269Z,101000.59
2022-11-24T06:14:41.501Z,101003.19
2022-11-24T06:18:03.145Z,101005.75
2022-11-24T06:21:25.116Z,101005.75
2022-11-24T06:24:50.734Z,101004.00
2022-11-24T06:28:12.629Z,101015.13
2022-11-24T06:31:35.224Z,100992.72
2022-11-24T06:34:57.297Z,101023.66
2022-11-24T06:38:22.993Z,101015.97
2022-11-24T06:41:47.479Z,101019.41
2022-11-24T06:45:10.253Z,101017.69
2022-11-24T06:48:32.640Z,101014.28
2022-11-24T06:51:56.369Z,101018.53
2022-11-24T06:55:17.933Z,101011.72
2022-11-24T06:58:49.507Z,101013.44
2022-11-24T07:02:11.709Z,101024.56
2022-11-24T07:05:34.738Z,101028.94
2022-11-24T07:08:56.415Z,101035.78
2022-11-24T07:12:18.652Z,101037.50
2022-11-24T07:15:41.986Z,101032.38
2022-11-24T07:19:06.074Z,101028.16
2022-11-24T07:22:27.827Z,101034.13
2022-11-24T07:25:49.899Z,101042.75
2022-11-24T07:29:11.995Z,101041.94
2022-11-24T07:32:35.636Z,101042.84
2022-11-24T07:36:01.004Z,101018.78
2022-11-24T07:39:22.760Z,101045.50
2022-11-24T07:42:44.919Z,101032.69
2022-11-24T07:46:08.969Z,101040.47
2022-11-24T07:49:32.155Z,101038.84
2022-11-24T07:52:54.276Z,101035.44
2022-11-24T07:56:16.312Z,101023.53
2022-11-24T07:59:37.988Z,101023.63
2022-11-24T08:02:59.844Z,101033.03
2022-11-24T08:06:26.528Z,101027.03
2022-11-24T08:09:52.355Z,101028.72
2022-11-24T08:13:14.152Z,101029.53
2022-11-24T08:16:36.139Z,101033.03
2022-11-24T08:19:57.896Z,101045.84
2022-11-24T08:23:21.252Z,101046.69
2022-11-24T08:26:45.106Z,101056.09
2022-11-24T08:30:08.172Z,101061.22
2022-11-24T08:33:30.671Z,101055.28
2022-11-24T08:36:52.927Z,101061.28
2022-11-24T08:40:16.337Z,101058.00
2022-11-24T08:43:38.858Z,101041.75
2022-11-24T08:47:00.978Z,101052.97
2022-11-24T08:50:23.451Z,101067.59
2022-11-24T08:53:45.513Z,101073.56
2022-11-24T08:57:08.438Z,101065.88
2022-11-24T09:00:30.118Z,101053.84
2022-11-24T09:03:52.724Z,101062.47
2022-11-24T09:07:14.820Z,101065.88
2022-11-24T09:10:37.395Z,101069.34
2022-11-24T09:14:00.881Z,101077.09
2022-11-24T09:17:23.063Z,101075.44
2022-11-24T09:21:02.856Z,101068.66
2022-11-24T09:24:24.839Z,101068.69
2022-11-24T09:27:46.730Z,101069.56
2022-11-24T09:31:12.804Z,101068.72
2022-11-24T09:34:34.560Z,101076.44
2022-11-24T09:37:56.815Z,101068.81
2022-11-24T09:42:00.192Z,101065.44
2022-11-24T09:46:04.042Z,101063.78
2022-11-24T09:49:32.028Z,101060.31
2022-11-24T09:53:01.522Z,101065.47
2022-11-24T09:56:25.370Z,101071.50
2022-11-24T09:59:47.411Z,101069.00
2022-11-24T10:03:18.222Z,101069.03
2022-11-24T10:06:50.264Z,101065.63
2022-11-24T10:10:24.251Z,101069.75
2022-11-24T10:14:06.801Z,101064.63
2022-11-24T10:17:45.571Z,101073.16
2022-11-24T10:21:28.165Z,101074.03
2022-11-24T10:25:17.571Z,101080.81
2022-11-24T10:28:45.926Z,101061.97
2022-11-24T10:32:15.095Z,101054.28
2022-11-24T10:35:45.573Z,101068.00
2022-11-24T10:39:16.976Z,101064.59
2022-11-24T10:42:40.446Z,101077.47
2022-11-24T10:46:13.056Z,101066.38
2022-11-24T10:49:35.530Z,101065.56
2022-11-24T10:53:04.727Z,101062.16
2022-11-24T10:56:26.878Z,101063.88
2022-11-24T10:59:50.189Z,101061.34
2022-11-24T11:03:18.851Z,101062.22
2022-11-24T11:06:40.702Z,101053.63
2022-11-24T11:10:21.875Z,101064.72
2022-11-24T11:14:03.431Z,101068.13
2022-11-24T11:17:37.094Z,101062.94
2022-11-24T11:21:02.589Z,101066.41
2022-11-24T11:24:25.037Z,101065.59
2022-11-24T11:27:48.448Z,101070.75
2022-11-24T11:31:25.268Z,101071.63
2022-11-24T11:34:49.726Z,101069.97
2022-11-24T11:38:12.498Z,101073.38
2022-11-24T11:41:37.891Z,101071.69
2022-11-24T11:45:06.720Z,101075.19
2022-11-24T11:48:40.633Z,101079.44
2022-11-24T11:56:14.848Z,101058.88
2022-11-24T11:59:55.224Z,101045.19
2022-11-24T12:03:44.543Z,101053.75
2022-11-24T12:07:31.798Z,101044.31
2022-11-24T12:11:03.499Z,101047.72
2022-11-24T12:14:33.721Z,101033.09
2022-11-24T12:18:07.006Z,101049.38
2022-11-24T12:21:37.091Z,101040.75
2022-11-24T12:25:08.335Z,101045.00
2022-11-24T12:28:43.536Z,101037.31
2022-11-24T12:32:12.947Z,101037.28
2022-11-24T12:35:39.765Z,101036.41
2022-11-24T12:39:07.884Z,101041.44
2022-11-24T12:42:42.656Z,101037.06
2022-11-24T12:46:15.661Z,101048.22
2022-11-24T12:49:48.717Z,101034.47
2022-11-24T12:53:15.244Z,101040.41
2022-11-24T12:56:44.736Z,101041.25
2022-11-24T13:00:16.304Z,101026.56
2022-11-24T13:03:51.760Z,101047.19
2022-11-24T13:07:19.546Z,101057.44
2022-11-24T13:10:58.061Z,101049.75
2022-11-24T13:14:23.633Z,101053.19
2022-11-24T13:18:05.552Z,101054.81
2022-11-24T13:21:47.419Z,101049.66
2022-11-24T13:25:20.300Z,101047.09
2022-11-24T13:29:09.278Z,101050.50
2022-11-24T13:32:48.482Z,101054.78
2022-11-24T13:36:32.939Z,101053.94
2022-11-24T13:39:56.043Z,101065.00
2022-11-24T13:43:23.698Z,101069.28
2022-11-24T13:47:03.499Z,101061.53
2022-11-24T13:51:04.993Z,101060.69
2022-11-24T13:54:29.855Z,101052.09
2022-11-24T13:57:53.883Z,101059.78
2022-11-24T14:01:21.550Z,101055.47
2022-11-24T14:04:45.844Z,101072.59
2022-11-24T14:08:17.757Z,101071.75
2022-11-24T14:11:41.696Z,101062.31
2022-11-24T14:15:23.896Z,101069.97
2022-11-24T14:18:47.335Z,101060.44
2022-11-24T14:22:17.085Z,101087.88
2022-11-24T14:25:39.922Z,101079.34
2022-11-24T14:29:15.568Z,101075.88
2022-11-24T14:32:37.970Z,101091.38
2022-11-24T14:35:59.911Z,101094.75
2022-11-24T14:39:24.226Z,101086.16
2022-11-24T14:42:51.920Z,101096.44
2022-11-24T14:46:21.512Z,101106.75
2022-11-24T14:49:44.758Z,101106.72
2022-11-24T14:53:15.142Z,101116.16
2022-11-24T14:56:39.425Z,101110.94
2022-11-24T15:00:29.772Z,101124.69
2022-11-24T15:08:03.947Z,101124.69
2022-11-24T15:11:25.959Z,101126.38
2022-11-24T15:14:52.538Z,101128.09
2022-11-24T15:18:27.482Z,101129.84
2022-11-24T15:21:50.969Z,101114.38
2022-11-24T15:25:33.972Z,101123.84
2022-11-24T15:28:55.923Z,101123.84
2022-11-24T15:32:18.222Z,101127.19
2022-11-24T15:35:40.410Z,101131.44
2022-11-24T15:39:03.448Z,101122.88
2022-11-24T15:42:25.388Z,101137.41
2022-11-24T15:45:50.520Z,101130.47
2022-11-24T15:49:12.723Z,101136.50
2022-11-24T15:52:35.114Z,101126.22
2022-11-24T15:55:58.971Z,101128.81
2022-11-24T15:59:21.433Z,101124.56
2022-11-24T16:02:43.413Z,101140.78
2022-11-24T16:06:05.833Z,101141.66
2022-11-24T16:09:28.093Z,101129.72
2022-11-24T16:12:51.638Z,101145.94
2022-11-24T16:16:15.787Z,101145.97
2022-11-24T16:19:41.575Z,101147.69
2022-11-24T16:23:05.088Z,101159.59
2022-11-24T16:26:26.964Z,101158.69
2022-11-24T16:29:50.469Z,101165.47
2022-11-24T16:33:12.499Z,101175.78
2022-11-24T16:36:34.917Z,101169.75
2022-11-24T16:39:57.659Z,101170.69
2022-11-24T16:43:19.874Z,101168.00
2022-11-24T16:46:44.787Z,101178.31
2022-11-24T16:50:08.595Z,101167.94
2022-11-24T16:53:30.586Z,101175.72
2022-11-24T16:56:53.229Z,101180.00
2022-11-24T17:00:16.483Z,101183.41
2022-11-24T17:03:40.595Z,101191.03
2022-11-24T17:07:02.909Z,101190.19
2022-11-24T17:10:25.056Z,101179.84
2022-11-24T17:13:47.588Z,101190.19
2022-11-24T17:17:09.503Z,101187.59
2022-11-24T17:20:33.965Z,101197.84
2022-11-24T17:23:56.906Z,101192.69
2022-11-24T17:27:18.515Z,101173.78
2022-11-24T17:30:40.656Z,101191.00
2022-11-24T17:34:04.493Z,101201.28
2022-11-24T17:37:27.707Z,101203.81
2022-11-24T17:40:49.658Z,101196.06
2022-11-24T17:44:12.782Z,101200.34
2022-11-24T17:47:34.466Z,101193.50
2022-11-24T17:51:04.208Z,101207.16
2022-11-24T17:58:09.884Z,101210.53
2022-11-24T18:01:32.797Z,101216.56
2022-11-24T18:04:54.809Z,101214.00
2022-11-24T18:08:17.171Z,101214.84
2022-11-24T18:11:40.731Z,101216.53
2022-11-24T18:15:02.764Z,101211.44
2022-11-24T18:18:24.874Z,101213.94
2022-11-24T18:21:47.097Z,101209.63
2022-11-24T18:25:09.903Z,101202.75
2022-11-24T18:28:33.486Z,101212.13
2022-11-24T18:31:55.375Z,101211.28
2022-11-24T18:35:17.629Z,101210.38
2022-11-24T18:38:39.745Z,101209.53
2022-11-24T18:42:01.867Z,101211.25
2022-11-24T18:45:25.202Z,101213.84
2022-11-24T18:48:48.524Z,101209.63
2022-11-24T18:52:10.109Z,101196.72
2022-11-24T18:55:31.636Z,101210.47
2022-11-24T18:58:54.706Z,101214.75
2022-11-24T19:02:17.961Z,101214.69
2022-11-24T19:05:41.310Z,101206.09
2022-11-24T19:09:05.956Z,101222.31
2022-11-24T19:12:27.991Z,101216.34
2022-11-24T19:15:50.175Z,101218.06
2022-11-24T19:19:14.010Z,101227.44
2022-11-24T19:22:36.780Z,101218.06
2022-11-24T19:26:04.418Z,101217.22
2022-11-24T19:29:26.499Z,101219.72
2022-11-24T19:32:48.400Z,101222.28
2022-11-24T19:36:13.890Z,101215.38
2022-11-24T19:39:35.708Z,101213.56
2022-11-24T19:42:57.768Z,101217.91
2022-11-24T19:46:20.739Z,101225.59
2022-11-24T19:49:42.762Z,101225.63
2022-11-24T19:53:06.522Z,101224.78
2022-11-24T19:56:29.917Z,101211.94
2022-11-24T19:59:51.994Z,101229.91
2022-11-24T20:03:14.174Z,101233.31
2022-11-24T20:06:38.144Z,101240.13
2022-11-24T20:10:06.290Z,101239.22
2022-11-24T20:13:29.637Z,101238.38
2022-11-24T20:16:51.930Z,101223.78
2022-11-24T20:20:14.702Z,101240.94
2022-11-24T20:23:36.722Z,101242.63
2022-11-24T20:27:00.618Z,101246.91
2022-11-24T20:30:22.548Z,101246.00
2022-11-24T20:33:46.359Z,101238.31
2022-11-24T20:37:13.386Z,101238.25
2022-11-24T20:40:34.932Z,101249.31
2022-11-24T20:44:01.051Z,101238.97
2022-11-24T20:47:22.909Z,101262.94
2022-11-24T20:50:50.965Z,101264.66
2022-11-24T20:54:14.205Z,101261.25
2022-11-24T20:57:36.010Z,101273.31
2022-11-24T21:01:04.697Z,101268.19
2022-11-24T21:04:28.312Z,101262.97
2022-11-24T21:07:50.369Z,101269.72
2022-11-24T21:11:14.116Z,101273.25
2022-11-24T21:14:35.844Z,101270.56
2022-11-24T21:17:59.276Z,101268.91
2022-11-24T21:21:22.386Z,101271.47
2022-11-24T21:24:44.344Z,101277.41
2022-11-24T21:28:07.899Z,101269.63
2022-11-24T21:31:30.029Z,101280.69
2022-11-24T21:34:53.668Z,101277.34
2022-11-24T21:38:16.390Z,101287.63
2022-11-24T21:41:38.256Z,101290.16
2022-11-24T21:45:02.225Z,101294.47
2022-11-24T21:48:23.909Z,101289.34
2022-11-24T21:51:47.427Z,101285.03
2022-11-24T21:55:09.923Z,101290.06
2022-11-24T21:58:31.817Z,101293.44
2022-11-24T22:01:54.155Z,101287.41
2022-11-24T22:05:16.341Z,101292.56
2022-11-24T22:08:40.094Z,101289.16
2022-11-24T22:12:02.410Z,101291.66
2022-11-24T22:15:24.236Z,101289.09
2022-11-24T22:18:47.060Z,101292.47
2022-11-24T22:22:08.963Z,101295.81
2022-11-24T22:25:31.899Z,101305.25
2022-11-24T22:28:54.936Z,101311.16
2022-11-24T22:32:16.849Z,101316.28
2022-11-24T22:35:38.808Z,101317.13
2022-11-24T22:39:03.293Z,101317.94
2022-11-24T22:42:26.489Z,101318.84
2022-11-24T22:45:48.715Z,101327.38
2022-11-24T22:49:11.314Z,101318.00
2022-11-24T22:52:33.918Z,101319.69
2022-11-24T22:55:55.922Z,101318.91
2022-11-24T22:59:19.258Z,101315.50
2022-11-24T23:02:41.405Z,101319.81
2022-11-24T23:06:04.413Z,101296.59
2022-11-24T23:09:26.479Z,101309.53
2022-11-24T23:12:50.004Z,101306.91
2022-11-24T23:16:16.090Z,101284.69
2022-11-24T23:19:38.284Z,101304.44
2022-11-24T23:23:02.789Z,101310.38
2022-11-24T23:26:26.738Z,101305.25
2022-11-24T23:29:48.411Z,101304.44
2022-11-24T23:33:11.853Z,101311.28
2022-11-24T23:36:34.337Z,101302.69
2022-11-24T23:39:56.130Z,101308.69
2022-11-24T23:43:17.818Z,101299.22
2022-11-24T23:46:39.829Z,101307.81
2022-11-24T23:50:02.916Z,101303.50
2022-11-24T23:53:24.719Z,101306.13
2022-11-24T23:56:46.319Z,101307.88
